createdAt,value
2022-12-25T00:04:08.398Z,7.45
2022-12-25T00:09:06.654Z,7.63
2022-12-25T00:14:04.759Z,7.36
2022-12-25T00:19:01.838Z,7.71
2022-12-25T00:23:59.871Z,7.49
2022-12-25T00:28:58.201Z,7.25
2022-12-25T00:33:56.114Z,7.48
2022-12-25T00:38:54.883Z,7.57
2022-12-25T00:43:51.909Z,7.40
2022-12-25T00:48:48.874Z,7.41
2022-12-25T00:53:47.022Z,7.01
2022-12-25T00:58:44.113Z,7.38
2022-12-25T01:03:41.305Z,7.27
2022-12-25T01:09:00.261Z,7.32
2022-12-25T01:13:58.377Z,7.31
2022-12-25T01:18:55.855Z,7.36
2022-12-25T01:23:53.606Z,6.86
2022-12-25T01:28:54.252Z,6.82
2022-12-25T01:33:52.257Z,6.91
2022-12-25T01:38:50.303Z,7.24
2022-12-25T01:44:00.210Z,7.47
2022-12-25T01:49:05.187Z,7.36
2022-12-25T01:54:05.735Z,6.88
2022-12-25T01:59:04.591Z,7.30
2022-12-25T02:04:08.920Z,6.66
2022-12-25T02:09:06.189Z,7.33
2022-12-25T02:14:03.358Z,7.43
2022-12-25T02:19:11.362Z,7.42
2022-12-25T02:24:41.975Z,7.04
2022-12-25T02:29:48.137Z,7.12
2022-12-25T02:34:52.074Z,7.40
2022-12-25T02:40:01.775Z,7.17
2022-12-25T02:45:17.921Z,6.74
2022-12-25T02:50:34.186Z,7.37
2022-12-25T02:55:55.307Z,7.17
2022-12-25T03:01:26.088Z,6.78
2022-12-25T03:06:44.249Z,6.63
2022-12-25T03:11:45.765Z,7.03
2022-12-25T03:16:53.234Z,6.93
2022-12-25T03:22:08.585Z,6.82
2022-12-25T03:27:05.590Z,7.02
2022-12-25T03:32:35.063Z,6.66
2022-12-25T03:38:12.067Z,7.23
2022-12-25T03:43:42.767Z,7.20
2022-12-25T03:49:20.468Z,6.99
2022-12-25T03:54:41.809Z,6.56
2022-12-25T04:00:00.166Z,7.15
2022-12-25T04:05:15.971Z,7.13
2022-12-25T04:10:31.236Z,6.96
2022-12-25T04:15:46.830Z,6.84
2022-12-25T04:21:01.815Z,6.44
2022-12-25T04:26:17.216Z,6.82
2022-12-25T04:31:32.181Z,6.89
2022-12-25T04:36:30.239Z,6.87
2022-12-25T04:41:27.326Z,6.66
2022-12-25T04:46:24.610Z,6.93
2022-12-25T04:51:24.940Z,6.57
2022-12-25T04:56:23.262Z,6.90
2022-12-25T05:01:20.407Z,6.84
2022-12-25T05:06:17.591Z,6.79
2022-12-25T05:11:16.316Z,6.57
2022-12-25T05:16:16.369Z,6.83
2022-12-25T05:21:13.818Z,6.65
2022-12-25T05:26:10.723Z,6.42
2022-12-25T05:31:07.694Z,6.81
2022-12-25T05:36:07.552Z,6.62
2022-12-25T05:41:05.255Z,6.35
2022-12-25T05:46:06.141Z,6.62
2022-12-25T05:51:08.982Z,6.74
2022-12-25T05:56:07.982Z,6.52
2022-12-25T06:01:10.800Z,6.17
2022-12-25T06:06:08.807Z,6.45
2022-12-25T06:11:07.854Z,6.39
2022-12-25T06:16:05.983Z,6.25
2022-12-25T06:21:07.327Z,6.77
2022-12-25T06:26:20.391Z,6.79
2022-12-25T06:31:19.986Z,6.63
2022-12-25T06:36:20.092Z,7.06
2022-12-25T06:41:19.509Z,6.93
2022-12-25T06:46:17.135Z,7.17
2022-12-25T06:51:14.739Z,7.29
2022-12-25T06:56:14.975Z,6.96
2022-12-25T07:01:18.934Z,7.45
2022-12-25T07:06:17.126Z,7.53
2022-12-25T07:11:14.213Z,7.61
2022-12-25T07:16:12.622Z,7.75
2022-12-25T07:21:12.396Z,7.54
2022-12-25T07:26:10.997Z,7.77
2022-12-25T07:31:14.462Z,7.98
2022-12-25T07:36:20.671Z,8.01
2022-12-25T07:41:18.067Z,8.03
2022-12-25T07:46:15.126Z,7.68
2022-12-25T07:51:14.658Z,7.82
2022-12-25T07:56:13.791Z,7.86
2022-12-25T08:01:13.506Z,8.19
2022-12-25T08:06:11.518Z,7.98
2022-12-25T08:11:14.370Z,8.18
2022-12-25T08:16:11.518Z,7.82
2022-12-25T08:21:10.739Z,8.34
2022-12-25T08:26:11.801Z,8.26
2022-12-25T08:31:11.194Z,8.24
2022-12-25T08:36:11.366Z,7.99
2022-12-25T08:41:09.807Z,7.83
2022-12-25T08:46:07.010Z,8.41
2022-12-25T08:51:05.286Z,8.48
2022-12-25T08:56:05.872Z,8.35
2022-12-25T09:01:04.507Z,8.81
2022-12-25T09:06:03.727Z,8.81
2022-12-25T09:11:02.355Z,9.01
2022-12-25T09:16:00.482Z,8.74
2022-12-25T09:21:01.716Z,9.17
2022-12-25T09:26:03.684Z,9.12
2022-12-25T09:31:02.598Z,9.25
2022-12-25T09:36:01.734Z,9.63
2022-12-25T09:41:01.446Z,9.06
2022-12-25T09:46:00.379Z,9.62
2022-12-25T09:51:03.305Z,9.45
2022-12-25T09:56:15.093Z,9.29
2022-12-25T10:01:34.114Z,9.43
2022-12-25T10:06:54.204Z,9.58
2022-12-25T10:12:09.420Z,9.37
2022-12-25T10:17:29.490Z,9.84
2022-12-25T10:22:34.483Z,9.86
2022-12-25T10:27:35.464Z,9.78
2022-12-25T10:32:36.761Z,10.04
2022-12-25T10:37:34.995Z,9.88
2022-12-25T10:42:46.292Z,10.08
2022-12-25T10:47:46.021Z,10.19
2022-12-25T10:52:56.768Z,10.54
2022-12-25T10:57:54.631Z,10.43
2022-12-25T11:02:55.208Z,10.70
2022-12-25T11:07:56.401Z,10.60
2022-12-25T11:13:05.429Z,10.80
2022-12-25T11:18:03.140Z,11.63
2022-12-25T11:23:01.038Z,12.09
2022-12-25T11:28:04.474Z,12.09
2022-12-25T11:33:05.189Z,12.55
2022-12-25T11:38:03.660Z,12.80
2022-12-25T11:43:08.347Z,13.08
2022-12-25T11:48:17.999Z,12.75
2022-12-25T11:53:23.303Z,13.25
2022-12-25T11:58:25.891Z,13.45
2022-12-25T12:03:28.331Z,13.29
2022-12-25T12:08:28.041Z,13.40
2022-12-25T12:13:43.924Z,13.34
2022-12-25T12:18:46.576Z,13.49
2022-12-25T12:23:53.766Z,13.31
2022-12-25T12:28:58.434Z,13.39
2022-12-25T12:33:58.432Z,13.36
2022-12-25T12:38:58.552Z,13.16
2022-12-25T12:44:03.451Z,13.57
2022-12-25T12:49:17.210Z,13.58
2022-12-25T12:54:22.637Z,13.58
2022-12-25T12:59:19.583Z,13.47
2022-12-25T13:04:57.784Z,13.45
2022-12-25T13:10:07.648Z,13.19
2022-12-25T13:15:12.296Z,13.33
2022-12-25T13:20:22.427Z,12.93
2022-12-25T13:25:22.197Z,12.90
2022-12-25T13:30:21.978Z,12.83
2022-12-25T13:35:23.270Z,12.89
2022-12-25T13:40:30.839Z,12.82
2022-12-25T13:45:30.021Z,12.19
2022-12-25T13:50:31.894Z,12.32
2022-12-25T13:55:29.975Z,12.44
2022-12-25T14:00:34.933Z,12.32
2022-12-25T14:05:41.616Z,11.68
2022-12-25T14:10:41.642Z,11.69
2022-12-25T14:15:40.234Z,11.95
2022-12-25T14:20:40.906Z,11.83
2022-12-25T14:25:44.001Z,11.71
2022-12-25T14:30:42.834Z,11.59
2022-12-25T14:35:39.764Z,11.45
2022-12-25T14:40:37.133Z,11.26
2022-12-25T14:45:37.976Z,11.17
2022-12-25T14:50:39.031Z,11.04
2022-12-25T14:55:37.589Z,10.69
2022-12-25T15:00:40.862Z,10.75
2022-12-25T15:05:40.682Z,10.29
2022-12-25T15:15:59.690Z,9.86
2022-12-25T15:20:56.598Z,10.27
2022-12-25T15:25:53.427Z,9.95
2022-12-25T15:30:50.282Z,9.84
2022-12-25T15:35:48.404Z,9.79
2022-12-25T15:40:46.802Z,9.77
2022-12-25T15:45:44.885Z,9.71
2022-12-25T15:50:43.601Z,9.63
2022-12-25T15:55:41.473Z,9.50
2022-12-25T16:00:38.340Z,9.42
2022-12-25T16:05:35.605Z,9.19
2022-12-25T16:10:43.498Z,8.70
2022-12-25T16:15:40.768Z,9.12
2022-12-25T16:20:38.027Z,8.70
2022-12-25T16:25:34.818Z,8.96
2022-12-25T16:30:32.568Z,8.98
2022-12-25T16:35:29.545Z,9.02
2022-12-25T16:40:26.903Z,8.87
2022-12-25T16:45:23.959Z,8.54
2022-12-25T16:50:23.225Z,8.64
2022-12-25T16:55:29.673Z,8.76
2022-12-25T17:00:27.203Z,8.64
2022-12-25T17:05:24.932Z,8.71
2022-12-25T17:10:22.134Z,8.27
2022-12-25T17:15:21.598Z,8.66
2022-12-25T17:20:28.475Z,8.40
2022-12-25T17:25:26.883Z,8.50
2022-12-25T17:30:23.933Z,8.28
2022-12-25T17:35:22.836Z,8.47
2022-12-25T17:40:22.190Z,8.25
2022-12-25T17:45:22.129Z,8.30
2022-12-25T17:50:19.078Z,8.14
2022-12-25T17:55:18.103Z,8.08
2022-12-25T18:00:16.150Z,8.10
2022-12-25T18:05:13.985Z,8.31
2022-12-25T18:10:11.343Z,8.41
2022-12-25T18:15:11.764Z,8.30
2022-12-25T18:20:09.639Z,8.30
2022-12-25T18:25:08.240Z,8.04
2022-12-25T18:30:12.445Z,8.26
2022-12-25T18:35:11.313Z,8.26
2022-12-25T18:40:09.992Z,8.07
2022-12-25T18:45:09.432Z,8.28
2022-12-25T18:50:08.575Z,8.12
2022-12-25T18:55:06.782Z,8.25
2022-12-25T19:00:05.476Z,8.14
2022-12-25T19:05:02.768Z,8.07
2022-12-25T19:09:59.781Z,7.96
2022-12-25T19:14:59.544Z,8.09
2022-12-25T19:19:57.390Z,7.53
2022-12-25T19:24:54.557Z,7.26
2022-12-25T19:29:51.680Z,7.90
2022-12-25T19:34:48.805Z,7.87
2022-12-25T19:39:46.745Z,7.34
2022-12-25T19:44:44.241Z,7.77
2022-12-25T19:49:57.361Z,7.30
2022-12-25T19:54:58.792Z,7.45
2022-12-25T19:59:56.208Z,7.26
2022-12-25T20:04:53.221Z,6.99
2022-12-25T20:09:50.183Z,7.36
2022-12-25T20:14:48.797Z,7.42
2022-12-25T20:19:45.894Z,7.14
2022-12-25T20:24:43.089Z,6.87
2022-12-25T20:29:43.312Z,7.01
2022-12-25T20:34:41.258Z,7.06
2022-12-25T20:39:38.635Z,7.11
2022-12-25T20:44:35.704Z,7.07
2022-12-25T20:49:34.168Z,6.99
2022-12-25T20:54:31.912Z,7.00
2022-12-25T20:59:33.592Z,7.08
2022-12-25T21:04:34.325Z,7.03
2022-12-25T21:09:33.043Z,6.73
2022-12-25T21:14:30.055Z,6.95
2022-12-25T21:19:27.377Z,6.93
2022-12-25T21:24:25.524Z,6.70
2022-12-25T21:29:23.883Z,6.77
2022-12-25T21:34:23.161Z,6.55
2022-12-25T21:39:20.022Z,6.54
2022-12-25T21:44:16.820Z,6.53
2022-12-25T21:49:36.817Z,6.64
2022-12-25T21:54:34.445Z,6.37
2022-12-25T21:59:31.555Z,6.46
2022-12-25T22:04:29.177Z,6.24
2022-12-25T22:09:26.817Z,6.11
2022-12-25T22:14:52.834Z,6.35
2022-12-25T22:19:51.466Z,6.05
2022-12-25T22:24:50.095Z,5.88
2022-12-25T22:29:48.288Z,6.08
2022-12-25T22:34:45.112Z,5.86
2022-12-25T22:39:43.354Z,5.98
2022-12-25T22:44:40.431Z,5.98
2022-12-25T22:49:37.476Z,5.95
2022-12-25T22:54:37.457Z,5.52
2022-12-25T22:59:35.267Z,5.70
2022-12-25T23:04:37.012Z,5.71
2022-12-25T23:09:34.319Z,5.29
2022-12-25T23:14:39.950Z,4.93
2022-12-25T23:19:55.752Z,4.95
2022-12-25T23:25:10.984Z,4.76
2022-12-25T23:30:10.200Z,4.32
2022-12-25T23:35:09.114Z,4.47
2022-12-25T23:40:07.702Z,4.38
2022-12-25T23:45:05.237Z,4.38
2022-12-25T23:50:02.612Z,4.30
2022-12-25T23:55:00.298Z,5.09
2022-12-25T23:59:57.093Z,5.16
